Pagrindinis puslapis
METAR-TAF:

METAR-TAF

Oro uostai :

Tunisas, Tunisas

platuma: 36-50N, ilguma: 010-14E, Aukštis: 3 m

Dabartinis oras

Ataskaita buvo paskelbta 19 minutes, ne 05:00 UTC
Vėjas 2 kt nuo kintamojo kryptimis
Temperatūra 24°C
Drėgmė 89%
Slėgis 1014 hPa
Matomumas 10 km arba daugiau
Išsisklaidę debesys ne aukštis 2600 ft

METAR: DTTA 180500Z VRB02KT 9999 SCT026 24/22 Q1014

Laikas: 06:19 (05:19 UTC)

Prognozė

Ataskaita buvo paskelbta 6 valandos ir 19 minutes, ne 23:00 UTC
Prognozė galioja nuo 18 metu 00 UTC su 18 metu 24 UTC
Vėjas 3 kt nuo kintamojo kryptimis
Matomumas 10 km arba daugiau
Išsisklaidę debesys ne aukštis 3300 ft
Laikinai
nuo 18 metu 13 UTC su 18 metu 16 UTC
Vėjas 10 kt iš Rytų/Šiaurės Rytų
Tikimybė 30% :
Laikinai
nuo 18 metu 14 UTC su 18 metu 22 UTC
Vėjas 15 kt nuo kintamojo kryptimis su gūsio iki 30 kt
Matomumas: 4000 m
Mažai debesys ne aukštis 2600 ft, Liūtiniai kamuoliniai debesys.
perkūnija, lietus

TAF: DTTA 172300Z 1800/1824 VRB03KT 9999 SCT033 TEMPO 1813/1816 07010KT PROB30 TEMPO 1814/1822 VRB15G30KT 4000 -TSRA FEW026CB

Orai ataskaitas ir orų prognozės (METAR, TAF).

turimą stotys yra geltonos ir raudonos taškus žemėlapyje.

Perkelti pele per norėdami pamatyti stoties vardą.

Tada spustelėkite, norėdami matyti oro stebėjimo ir prognozės.

Norėdami pakeisti žemėlapį: spustelėkite ant žalios mygtukų su juodo kryžiaus žemyn,; žalią mygtuką su brūkšneliu, jei norite nutolinti; arba žalių rodyklių gretimoms žemėlapius.


METAR-TAF: